Time;durP1;ratioP1;P1;durP2;ratioP2;P2;SDS_P1;SDS_P2;PMS_P1;PMS_P2;Temp;Humidity;BMP_temperature;BMP_pressure;BME280_temperature;BME280_humidity;BME280_pressure;Samples;Min_cycle;Max_cycle;Signal;HPM_P1;HPM_P2
2023/12/10 00:00:29;;;;;;;6.17;5.57;;;;;;;;;;5008157;28;20225;-83
2023/12/10 00:02:57;;;;;;;6.27;5.70;;;;;;;;;;5007011;28;20223;-87
2023/12/10 00:05:26;;;;;;;6.03;5.53;;;;;;;;;;5010179;28;20296;-86
2023/12/10 00:07:55;;;;;;;5.30;4.90;;;;;;;;;;4976288;28;20228;-88
2023/12/10 00:10:23;;;;;;;5.83;5.40;;;;;;;;;;5020981;28;20788;-87
2023/12/10 00:12:51;;;;;;;5.50;5.10;;;;;;;;;;4988673;28;20267;-83
2023/12/10 00:18:52;;;;;;;6.23;4.90;;;;;;;;;;5015805;28;20344;-85
2023/12/10 00:21:23;;;;;;;6.37;5.80;;;;;;;;;;4984111;28;20224;-85
2023/12/10 00:23:50;;;;;;;5.70;5.20;;;;;;;;;;5001769;28;20587;-87
2023/12/10 00:26:21;;;;;;;5.20;4.80;;;;;;;;;;4970665;28;20212;-85
2023/12/10 00:28:48;;;;;;;5.77;5.37;;;;;;;;;;4998921;28;20320;-87
2023/12/10 00:31:16;;;;;;;5.17;4.77;;;;;;;;;;4996218;28;20599;-84
2023/12/10 00:33:42;;;;;;;5.20;4.80;;;;;;;;;;5016083;28;20228;-86
2023/12/10 00:36:11;;;;;;;5.53;5.13;;;;;;;;;;4977970;28;20216;-86
2023/12/10 00:38:38;;;;;;;5.83;5.30;;;;;;;;;;5000274;28;20216;-86
2023/12/10 00:41:05;;;;;;;5.57;5.07;;;;;;;;;;4982353;28;20280;-87
2023/12/10 00:43:35;;;;;;;5.27;4.87;;;;;;;;;;4996547;28;20228;-85
2023/12/10 00:46:23;;;;;;;6.07;5.57;;;;;;;;;;4997735;28;20752;-87
2023/12/10 00:48:56;;;;;;;5.50;5.10;;;;;;;;;;4999577;28;20225;-87
2023/12/10 00:51:24;;;;;;;6.27;5.67;;;;;;;;;;4981721;28;20266;-85
2023/12/10 00:53:50;;;;;;;6.90;6.30;;;;;;;;;;4996828;28;20209;-87
2023/12/10 00:56:23;;;;;;;6.43;5.83;;;;;;;;;;4986088;28;20236;-86
2023/12/10 00:58:48;;;;;;;6.83;6.23;;;;;;;;;;4978254;28;20316;-87
2023/12/10 01:01:14;;;;;;;7.07;6.50;;;;;;;;;;4994555;28;20281;-86
2023/12/10 01:03:43;;;;;;;8.27;6.30;;;;;;;;;;4995996;28;20236;-87
2023/12/10 01:06:10;;;;;;;8.13;6.93;;;;;;;;;;4987030;28;20277;-87
2023/12/10 01:08:35;;;;;;;7.37;6.60;;;;;;;;;;4997223;28;20223;-86
2023/12/10 01:11:02;;;;;;;7.63;6.97;;;;;;;;;;4996639;28;20221;-87
2023/12/10 01:13:27;;;;;;;7.10;6.47;;;;;;;;;;4980306;28;20275;-88
2023/12/10 01:15:56;;;;;;;8.20;7.17;;;;;;;;;;4992943;28;20229;-86
2023/12/10 01:18:22;;;;;;;11.67;7.60;;;;;;;;;;4996259;28;20286;-86
2023/12/10 01:20:47;;;;;;;8.40;7.40;;;;;;;;;;4978964;28;20677;-87
2023/12/10 01:23:14;;;;;;;9.97;7.30;;;;;;;;;;5009250;28;20229;-86
2023/12/10 01:25:41;;;;;;;9.30;7.27;;;;;;;;;;4979688;28;20274;-88
2023/12/10 01:28:12;;;;;;;9.30;7.87;;;;;;;;;;4944017;28;20226;-86
2023/12/10 01:30:39;;;;;;;10.53;7.73;;;;;;;;;;4990214;28;20255;-87
2023/12/10 01:33:23;;;;;;;9.90;8.03;;;;;;;;;;4979063;28;20235;-87
2023/12/10 01:35:54;;;;;;;15.30;8.40;;;;;;;;;;4964372;28;20687;-87
2023/12/10 01:38:24;;;;;;;15.33;8.90;;;;;;;;;;4996729;28;20233;-87
2023/12/10 01:40:50;;;;;;;14.03;8.97;;;;;;;;;;4998922;28;20213;-86
2023/12/10 01:43:21;;;;;;;15.23;9.90;;;;;;;;;;4984018;28;20655;-85
2023/12/10 01:45:50;;;;;;;11.40;8.80;;;;;;;;;;4987181;28;20251;-85
2023/12/10 01:48:16;;;;;;;11.00;9.80;;;;;;;;;;5004112;28;20295;-85
2023/12/10 01:50:42;;;;;;;14.70;10.57;;;;;;;;;;5006544;28;20246;-85
2023/12/10 01:53:08;;;;;;;13.40;10.97;;;;;;;;;;5006710;28;20292;-84
2023/12/10 01:55:35;;;;;;;14.37;11.30;;;;;;;;;;4987449;28;20219;-86
2023/12/10 01:58:03;;;;;;;15.87;11.50;;;;;;;;;;4982751;28;20225;-86
2023/12/10 02:00:34;;;;;;;16.67;11.53;;;;;;;;;;4984525;28;20287;-86
2023/12/10 02:03:03;;;;;;;18.00;12.33;;;;;;;;;;4998693;28;20624;-83
2023/12/10 02:05:29;;;;;;;18.57;12.80;;;;;;;;;;5000475;28;20695;-86
2023/12/10 02:08:02;;;;;;;20.93;11.87;;;;;;;;;;4989040;28;20247;-83
2023/12/10 02:10:37;;;;;;;21.27;11.23;;;;;;;;;;5015810;28;20232;-85
2023/12/10 02:13:04;;;;;;;18.77;11.17;;;;;;;;;;5000200;28;20213;-85
2023/12/10 02:15:30;;;;;;;24.13;11.57;;;;;;;;;;4984204;28;20220;-84
2023/12/10 02:17:58;;;;;;;25.50;11.87;;;;;;;;;;4987589;28;20233;-87
2023/12/10 02:20:36;;;;;;;26.77;10.40;;;;;;;;;;5003846;28;20293;-88
2023/12/10 02:23:33;;;;;;;26.40;9.93;;;;;;;;;;5005643;28;20223;-86
2023/12/10 02:26:02;;;;;;;26.00;8.60;;;;;;;;;;5002144;28;20666;-85
2023/12/10 02:28:30;;;;;;;23.00;8.00;;;;;;;;;;4984187;28;20244;-84
2023/12/10 02:30:58;;;;;;;26.47;8.63;;;;;;;;;;4974487;28;20221;-85
2023/12/10 02:33:30;;;;;;;21.77;7.17;;;;;;;;;;4979409;28;20275;-86
2023/12/10 02:35:58;;;;;;;22.87;7.10;;;;;;;;;;4971932;28;20237;-84
2023/12/10 02:38:26;;;;;;;22.80;6.83;;;;;;;;;;4985839;28;20229;-84
2023/12/10 02:40:54;;;;;;;29.23;6.90;;;;;;;;;;4997411;28;20607;-84
2023/12/10 02:43:20;;;;;;;21.40;6.10;;;;;;;;;;5000551;28;20217;-84
2023/12/10 02:46:03;;;;;;;25.83;6.80;;;;;;;;;;5000938;28;20296;-89
2023/12/10 02:48:34;;;;;;;22.73;5.57;;;;;;;;;;4980495;28;20221;-85
2023/12/10 02:51:00;;;;;;;23.50;6.33;;;;;;;;;;5013662;28;20591;-87
2023/12/10 02:53:27;;;;;;;22.10;6.00;;;;;;;;;;4991044;28;20216;-87
2023/12/10 02:55:52;;;;;;;33.60;7.07;;;;;;;;;;4999674;28;20600;-84
2023/12/10 02:58:20;;;;;;;26.20;6.57;;;;;;;;;;4999371;28;20241;-86
2023/12/10 03:01:07;;;;;;;31.30;6.80;;;;;;;;;;5001028;28;20267;-85
2023/12/10 03:03:35;;;;;;;27.80;6.13;;;;;;;;;;4982254;28;20220;-86
2023/12/10 03:06:06;;;;;;;29.77;6.40;;;;;;;;;;5001837;28;20919;-86
2023/12/10 03:08:34;;;;;;;32.53;7.27;;;;;;;;;;4981156;28;20300;-86
2023/12/10 03:11:03;;;;;;;31.00;6.73;;;;;;;;;;4999796;28;20752;-87
2023/12/10 03:13:32;;;;;;;30.57;6.70;;;;;;;;;;4999626;28;20227;-88
2023/12/10 03:16:03;;;;;;;34.03;6.63;;;;;;;;;;4997775;28;20574;-88
2023/12/10 03:18:29;;;;;;;44.10;7.17;;;;;;;;;;4974524;28;20283;-85
2023/12/10 03:20:55;;;;;;;31.43;6.60;;;;;;;;;;5000471;28;20225;-84
2023/12/10 03:23:21;;;;;;;35.43;6.63;;;;;;;;;;5003346;28;20738;-85
2023/12/10 03:25:48;;;;;;;35.37;6.77;;;;;;;;;;4971207;28;20235;-85
2023/12/10 03:28:16;;;;;;;31.00;6.97;;;;;;;;;;4985586;28;20892;-85
2023/12/10 03:30:41;;;;;;;40.33;7.23;;;;;;;;;;4980152;28;20677;-85
2023/12/10 03:33:10;;;;;;;44.80;7.60;;;;;;;;;;4997733;28;20328;-86
2023/12/10 03:35:40;;;;;;;38.10;8.00;;;;;;;;;;4998369;28;20220;-84
2023/12/10 03:38:06;;;;;;;36.80;7.33;;;;;;;;;;4992275;28;20232;-86
2023/12/10 03:40:34;;;;;;;27.73;6.40;;;;;;;;;;4995633;28;20218;-85
2023/12/10 03:43:03;;;;;;;27.73;6.53;;;;;;;;;;4998241;28;20219;-86
2023/12/10 03:45:31;;;;;;;31.77;6.50;;;;;;;;;;4979636;28;20569;-85
2023/12/10 03:48:03;;;;;;;27.03;6.90;;;;;;;;;;4996151;28;20228;-84
2023/12/10 03:50:31;;;;;;;42.30;7.97;;;;;;;;;;4981531;28;20308;-86
2023/12/10 03:52:59;;;;;;;36.13;7.10;;;;;;;;;;4988560;28;20232;-84
2023/12/10 03:55:25;;;;;;;34.63;7.10;;;;;;;;;;4989545;28;20279;-87
2023/12/10 03:57:51;;;;;;;27.23;6.23;;;;;;;;;;4982227;28;20216;-86
2023/12/10 04:04:12;;;;;;;38.80;7.30;;;;;;;;;;5017359;28;20240;-86
2023/12/10 04:07:05;;;;;;;28.07;6.63;;;;;;;;;;5008737;28;20689;-82
2023/12/10 04:09:30;;;;;;;33.83;7.23;;;;;;;;;;5012237;28;20250;-85
2023/12/10 04:11:58;;;;;;;32.77;7.10;;;;;;;;;;4996296;28;20259;-85
2023/12/10 04:14:28;;;;;;;33.27;6.73;;;;;;;;;;4987767;28;20229;-87
2023/12/10 04:16:55;;;;;;;37.73;7.33;;;;;;;;;;4997446;28;20233;-87
2023/12/10 04:19:32;;;;;;;33.77;7.63;;;;;;;;;;4994540;28;20256;-86
2023/12/10 04:21:58;;;;;;;27.43;6.93;;;;;;;;;;4982370;28;20225;-84
2023/12/10 04:24:26;;;;;;;26.90;7.27;;;;;;;;;;4997647;28;20216;-87
2023/12/10 04:26:54;;;;;;;32.20;7.20;;;;;;;;;;4977007;28;20255;-83
2023/12/10 04:29:22;;;;;;;25.73;6.30;;;;;;;;;;4975111;28;20307;-85
2023/12/10 04:31:50;;;;;;;33.70;6.80;;;;;;;;;;4988288;28;20889;-82
2023/12/10 04:34:16;;;;;;;30.47;6.73;;;;;;;;;;5003557;28;20631;-84
2023/12/10 04:36:41;;;;;;;26.83;6.90;;;;;;;;;;5009475;28;20274;-83
2023/12/10 04:39:08;;;;;;;35.43;7.53;;;;;;;;;;4990103;28;20236;-84
2023/12/10 04:42:11;;;;;;;30.83;7.03;;;;;;;;;;4996276;28;20216;-85
2023/12/10 04:44:39;;;;;;;34.00;7.47;;;;;;;;;;4957689;28;20280;-82
2023/12/10 04:47:06;;;;;;;25.73;6.40;;;;;;;;;;4996013;28;20232;-84
2023/12/10 04:49:36;;;;;;;38.10;7.27;;;;;;;;;;4982629;28;20255;-82
2023/12/10 04:52:05;;;;;;;34.30;8.00;;;;;;;;;;5009826;28;20223;-84
2023/12/10 04:54:58;;;;;;;33.87;7.73;;;;;;;;;;5013880;28;20232;-83
2023/12/10 04:57:30;;;;;;;30.50;7.77;;;;;;;;;;4991649;28;20225;-85
2023/12/10 04:59:57;;;;;;;26.60;8.17;;;;;;;;;;4995688;28;20228;-82
2023/12/10 05:02:25;;;;;;;29.77;7.20;;;;;;;;;;4995231;28;20216;-84
2023/12/10 05:04:51;;;;;;;28.77;7.00;;;;;;;;;;4991842;28;20867;-83
2023/12/10 05:07:16;;;;;;;33.27;7.23;;;;;;;;;;4998899;28;20229;-83
2023/12/10 05:09:42;;;;;;;38.70;8.13;;;;;;;;;;4995556;28;20221;-84
2023/12/10 05:12:11;;;;;;;32.20;8.07;;;;;;;;;;4997718;28;20221;-83
2023/12/10 05:14:36;;;;;;;28.03;7.50;;;;;;;;;;4999719;28;20308;-85
2023/12/10 05:17:07;;;;;;;32.20;7.60;;;;;;;;;;5000610;28;20221;-84
2023/12/10 05:19:32;;;;;;;28.97;7.17;;;;;;;;;;4993513;28;20237;-86
2023/12/10 05:21:58;;;;;;;28.40;7.40;;;;;;;;;;5005693;28;20221;-83
2023/12/10 05:24:24;;;;;;;22.70;6.57;;;;;;;;;;5024807;28;20304;-84
2023/12/10 05:26:49;;;;;;;29.27;7.97;;;;;;;;;;5007277;28;20231;-85
2023/12/10 05:29:17;;;;;;;27.73;6.90;;;;;;;;;;5006304;28;20243;-85
2023/12/10 05:31:43;;;;;;;24.60;7.30;;;;;;;;;;4988157;28;20253;-85
2023/12/10 05:34:10;;;;;;;30.93;7.60;;;;;;;;;;4996169;28;20221;-84
2023/12/10 05:36:36;;;;;;;24.27;7.23;;;;;;;;;;5008071;28;20251;-83
2023/12/10 05:39:03;;;;;;;26.60;7.87;;;;;;;;;;5023111;28;20914;-84
2023/12/10 05:41:28;;;;;;;28.57;7.73;;;;;;;;;;5004565;28;20224;-83
2023/12/10 05:43:54;;;;;;;29.77;7.07;;;;;;;;;;4988708;28;20702;-87
2023/12/10 05:46:20;;;;;;;19.77;7.17;;;;;;;;;;5002536;28;20228;-85
2023/12/10 05:48:48;;;;;;;25.83;7.40;;;;;;;;;;4984687;28;20229;-83
2023/12/10 05:51:13;;;;;;;24.83;7.43;;;;;;;;;;5018798;28;20220;-84
2023/12/10 05:53:41;;;;;;;23.17;7.40;;;;;;;;;;4984944;28;20228;-84
2023/12/10 05:56:09;;;;;;;27.27;6.80;;;;;;;;;;5002707;28;20228;-83
2023/12/10 05:58:37;;;;;;;25.57;6.90;;;;;;;;;;5000219;28;20217;-84
2023/12/10 06:01:03;;;;;;;28.43;7.33;;;;;;;;;;4998967;28;20288;-85
2023/12/10 06:03:31;;;;;;;24.63;7.60;;;;;;;;;;4984918;28;20252;-86
2023/12/10 06:05:57;;;;;;;21.20;7.07;;;;;;;;;;4998023;28;20268;-84
2023/12/10 06:08:22;;;;;;;23.57;6.60;;;;;;;;;;5000300;28;21745;-84
2023/12/10 06:10:50;;;;;;;21.23;6.60;;;;;;;;;;5009725;28;20582;-85
2023/12/10 06:13:18;;;;;;;21.53;5.90;;;;;;;;;;4985403;28;20282;-86
2023/12/10 06:15:46;;;;;;;19.43;6.23;;;;;;;;;;4999275;28;20221;-84
2023/12/10 06:18:14;;;;;;;24.93;7.20;;;;;;;;;;4999422;28;20839;-83
2023/12/10 06:20:40;;;;;;;21.27;6.17;;;;;;;;;;5002674;28;20240;-86
2023/12/10 06:23:10;;;;;;;14.07;5.53;;;;;;;;;;4982543;28;20239;-82
2023/12/10 06:25:36;;;;;;;18.17;5.87;;;;;;;;;;4999482;28;20590;-84
2023/12/10 06:28:02;;;;;;;22.27;5.90;;;;;;;;;;5014324;28;20221;-87
2023/12/10 06:30:32;;;;;;;20.50;5.53;;;;;;;;;;4999869;28;20685;-84
2023/12/10 06:32:58;;;;;;;21.53;5.33;;;;;;;;;;4994876;28;20217;-86
2023/12/10 06:35:24;;;;;;;14.70;4.97;;;;;;;;;;4997867;28;20232;-85
2023/12/10 06:37:49;;;;;;;16.40;5.03;;;;;;;;;;5005787;28;20243;-82
2023/12/10 06:40:15;;;;;;;13.60;4.97;;;;;;;;;;5003919;28;20237;-85
2023/12/10 06:42:43;;;;;;;13.20;4.50;;;;;;;;;;4984761;28;20221;-85
2023/12/10 06:45:12;;;;;;;14.40;4.50;;;;;;;;;;4995011;28;20243;-87
2023/12/10 06:47:38;;;;;;;19.60;4.17;;;;;;;;;;4983807;28;20355;-87
2023/12/10 06:50:04;;;;;;;14.67;4.70;;;;;;;;;;4983380;28;20257;-84
2023/12/10 06:52:30;;;;;;;14.53;4.47;;;;;;;;;;5001372;28;20239;-84
2023/12/10 06:54:55;;;;;;;11.23;4.00;;;;;;;;;;5001130;28;20221;-85
2023/12/10 06:57:23;;;;;;;10.73;3.63;;;;;;;;;;4999847;28;20232;-83
2023/12/10 06:59:51;;;;;;;12.80;4.33;;;;;;;;;;4988203;28;20244;-86
2023/12/10 07:02:17;;;;;;;14.07;4.27;;;;;;;;;;5014691;28;20756;-84
2023/12/10 07:04:42;;;;;;;13.77;4.13;;;;;;;;;;4984687;28;20231;-85
2023/12/10 07:07:09;;;;;;;10.13;3.97;;;;;;;;;;5002656;28;20273;-85
2023/12/10 07:09:37;;;;;;;13.90;3.87;;;;;;;;;;5001526;28;20220;-85
2023/12/10 07:12:03;;;;;;;15.53;3.97;;;;;;;;;;4983840;28;20730;-85
2023/12/10 07:14:28;;;;;;;9.23;3.67;;;;;;;;;;5002322;28;20234;-88
2023/12/10 07:16:54;;;;;;;11.83;3.70;;;;;;;;;;5004826;28;20227;-86
2023/12/10 07:19:23;;;;;;;10.80;3.73;;;;;;;;;;5001278;28;20251;-83
2023/12/10 07:21:52;;;;;;;9.53;3.70;;;;;;;;;;4984710;28;20714;-86
2023/12/10 07:24:19;;;;;;;12.63;3.87;;;;;;;;;;4983650;28;20232;-88
2023/12/10 07:26:45;;;;;;;12.67;3.57;;;;;;;;;;5000297;28;20224;-86
2023/12/10 07:29:14;;;;;;;9.07;3.37;;;;;;;;;;4998938;28;20221;-86
2023/12/10 07:31:39;;;;;;;10.03;3.33;;;;;;;;;;4995667;28;20240;-84
2023/12/10 07:34:05;;;;;;;7.30;2.93;;;;;;;;;;4982407;28;20229;-86
2023/12/10 07:36:30;;;;;;;11.00;3.50;;;;;;;;;;4998272;28;20221;-83
2023/12/10 07:38:56;;;;;;;8.40;3.50;;;;;;;;;;5001155;28;20848;-86
2023/12/10 07:41:24;;;;;;;13.33;3.53;;;;;;;;;;4991826;28;20267;-85
2023/12/10 07:43:49;;;;;;;8.03;3.43;;;;;;;;;;5022211;28;20225;-86
2023/12/10 07:46:23;;;;;;;8.87;3.17;;;;;;;;;;4983529;28;20216;-85
2023/12/10 07:48:49;;;;;;;9.20;3.10;;;;;;;;;;4986512;28;20228;-84
2023/12/10 07:51:14;;;;;;;11.37;3.70;;;;;;;;;;5001448;28;20221;-86
2023/12/10 07:53:42;;;;;;;7.30;3.10;;;;;;;;;;5000455;28;20266;-84
2023/12/10 07:56:09;;;;;;;9.87;3.10;;;;;;;;;;4998820;28;20231;-88
2023/12/10 07:58:37;;;;;;;13.47;3.47;;;;;;;;;;5002502;28;20323;-85
2023/12/10 08:01:03;;;;;;;9.77;2.90;;;;;;;;;;4983863;28;20241;-82
2023/12/10 08:03:31;;;;;;;7.83;2.73;;;;;;;;;;4984890;28;20248;-83
2023/12/10 08:05:57;;;;;;;6.43;2.90;;;;;;;;;;5012830;28;20232;-83
2023/12/10 08:08:23;;;;;;;7.33;3.37;;;;;;;;;;4983121;28;25945;-85
2023/12/10 08:10:49;;;;;;;10.33;3.10;;;;;;;;;;4966232;28;20225;-87
2023/12/10 08:13:15;;;;;;;10.47;3.17;;;;;;;;;;4990258;28;20249;-85
2023/12/10 08:15:41;;;;;;;8.20;2.90;;;;;;;;;;4997297;28;20224;-85
2023/12/10 08:18:12;;;;;;;6.73;2.57;;;;;;;;;;5002726;28;20227;-84
2023/12/10 08:20:38;;;;;;;8.47;2.70;;;;;;;;;;5001420;28;20648;-83
2023/12/10 08:23:06;;;;;;;5.63;2.77;;;;;;;;;;4999733;28;20231;-84
2023/12/10 08:25:31;;;;;;;6.27;2.50;;;;;;;;;;4983921;28;20228;-83
2023/12/10 08:27:58;;;;;;;6.77;2.57;;;;;;;;;;5000270;28;20217;-85
2023/12/10 08:30:25;;;;;;;7.83;2.80;;;;;;;;;;5000605;28;20227;-82
2023/12/10 08:32:51;;;;;;;6.00;2.40;;;;;;;;;;5007177;28;20220;-85
2023/12/10 08:35:17;;;;;;;7.17;3.00;;;;;;;;;;4966758;28;20235;-84
2023/12/10 08:37:42;;;;;;;8.17;2.57;;;;;;;;;;4980202;28;20256;-85
2023/12/10 08:40:10;;;;;;;4.90;2.47;;;;;;;;;;4980532;28;20229;-86
2023/12/10 08:42:38;;;;;;;5.70;3.17;;;;;;;;;;5003350;28;20223;-85
2023/12/10 08:45:04;;;;;;;6.33;2.80;;;;;;;;;;4993468;28;20221;-83
2023/12/10 08:47:35;;;;;;;5.50;2.63;;;;;;;;;;5006503;28;20231;-86
2023/12/10 08:50:05;;;;;;;8.43;3.30;;;;;;;;;;4986454;28;20251;-85
2023/12/10 08:52:31;;;;;;;10.90;3.20;;;;;;;;;;4990714;28;20221;-87
2023/12/10 08:55:01;;;;;;;8.73;3.33;;;;;;;;;;5021902;28;20224;-85
2023/12/10 08:57:27;;;;;;;10.13;3.20;;;;;;;;;;5003401;28;20232;-86
2023/12/10 09:00:00;;;;;;;7.17;2.43;;;;;;;;;;4988895;28;20310;-86
2023/12/10 09:02:29;;;;;;;6.90;2.93;;;;;;;;;;4998018;28;20220;-84
2023/12/10 09:04:57;;;;;;;6.43;3.23;;;;;;;;;;5003400;28;20221;-85
2023/12/10 09:07:23;;;;;;;10.37;4.73;;;;;;;;;;5003412;28;20278;-83
2023/12/10 09:09:48;;;;;;;8.03;3.40;;;;;;;;;;5004468;28;20224;-88
2023/12/10 09:12:14;;;;;;;8.00;3.40;;;;;;;;;;4969386;28;20228;-86
2023/12/10 09:14:42;;;;;;;8.20;3.50;;;;;;;;;;5005431;28;20295;-84
2023/12/10 09:17:07;;;;;;;9.53;3.43;;;;;;;;;;4987965;28;20240;-84
2023/12/10 09:19:33;;;;;;;6.70;3.17;;;;;;;;;;4986313;28;20236;-86
2023/12/10 09:22:03;;;;;;;10.17;2.80;;;;;;;;;;5004618;28;20217;-87
2023/12/10 09:24:31;;;;;;;8.13;2.53;;;;;;;;;;4985654;28;20213;-87
2023/12/10 09:27:00;;;;;;;7.90;2.50;;;;;;;;;;5004802;28;20232;-87
2023/12/10 09:29:26;;;;;;;7.23;3.20;;;;;;;;;;4985415;28;20221;-83
2023/12/10 09:31:51;;;;;;;9.13;2.90;;;;;;;;;;5011413;28;20215;-85
2023/12/10 09:34:17;;;;;;;4.30;2.23;;;;;;;;;;4990643;28;20235;-87
2023/12/10 09:36:49;;;;;;;6.80;2.10;;;;;;;;;;5010063;28;20267;-85
2023/12/10 09:39:15;;;;;;;6.23;2.00;;;;;;;;;;5007753;28;20225;-84
2023/12/10 09:41:41;;;;;;;6.47;2.07;;;;;;;;;;5011067;28;20234;-86
2023/12/10 09:44:09;;;;;;;5.47;2.17;;;;;;;;;;5008209;28;20220;-87
2023/12/10 09:46:35;;;;;;;3.93;2.03;;;;;;;;;;4990731;28;20221;-83
2023/12/10 09:49:02;;;;;;;6.17;1.90;;;;;;;;;;4994221;28;20220;-86
2023/12/10 09:51:28;;;;;;;10.20;2.27;;;;;;;;;;5007553;28;20221;-86
2023/12/10 09:53:56;;;;;;;3.20;1.83;;;;;;;;;;4972461;28;20254;-86
2023/12/10 09:56:24;;;;;;;4.13;1.77;;;;;;;;;;5008479;28;20308;-85
2023/12/10 09:58:50;;;;;;;6.53;2.00;;;;;;;;;;5005595;28;20241;-85
2023/12/10 10:01:15;;;;;;;3.43;1.77;;;;;;;;;;5006065;28;20238;-87
2023/12/10 10:03:41;;;;;;;5.73;2.00;;;;;;;;;;4985953;28;20224;-86
2023/12/10 10:06:08;;;;;;;3.83;1.90;;;;;;;;;;5001051;28;20224;-86
2023/12/10 10:08:37;;;;;;;2.63;1.50;;;;;;;;;;5002622;28;20300;-85
2023/12/10 10:11:05;;;;;;;1.87;1.17;;;;;;;;;;5002559;28;20239;-86
2023/12/10 10:13:31;;;;;;;3.57;1.50;;;;;;;;;;4985859;28;20333;-85
2023/12/10 10:15:56;;;;;;;2.20;1.23;;;;;;;;;;5001575;28;20225;-85
2023/12/10 10:18:22;;;;;;;2.60;1.37;;;;;;;;;;4991261;28;20229;-88
2023/12/10 10:20:48;;;;;;;2.23;1.30;;;;;;;;;;5008633;28;20311;-85
2023/12/10 10:23:14;;;;;;;2.63;1.23;;;;;;;;;;4996252;28;20694;-85
2023/12/10 10:25:40;;;;;;;2.37;1.30;;;;;;;;;;4999941;28;20224;-86
2023/12/10 10:28:11;;;;;;;1.67;0.80;;;;;;;;;;5006755;28;20217;-84
2023/12/10 10:30:36;;;;;;;1.83;1.20;;;;;;;;;;4992229;28;20216;-86
2023/12/10 10:33:02;;;;;;;1.90;1.17;;;;;;;;;;4976835;28;20763;-88
2023/12/10 10:35:28;;;;;;;3.33;1.33;;;;;;;;;;4982932;28;20228;-83
2023/12/10 10:37:53;;;;;;;1.93;1.27;;;;;;;;;;4981615;28;20270;-85
2023/12/10 10:40:19;;;;;;;2.77;1.13;;;;;;;;;;5003288;28;20228;-88
2023/12/10 10:42:47;;;;;;;2.13;1.30;;;;;;;;;;4999166;28;20212;-86
2023/12/10 10:45:15;;;;;;;7.37;2.10;;;;;;;;;;4975266;28;20737;-87
2023/12/10 10:47:41;;;;;;;4.47;2.63;;;;;;;;;;5000599;28;20236;-86
2023/12/10 10:50:07;;;;;;;2.57;2.00;;;;;;;;;;4991012;28;20694;-85
2023/12/10 10:52:33;;;;;;;4.97;2.97;;;;;;;;;;4977104;28;20221;-85
2023/12/10 10:54:59;;;;;;;3.20;2.20;;;;;;;;;;5012495;28;20217;-84
2023/12/10 10:57:31;;;;;;;3.47;1.27;;;;;;;;;;4981826;28;20235;-84
2023/12/10 10:59:57;;;;;;;6.17;1.10;;;;;;;;;;5003155;28;20304;-86
2023/12/10 11:02:23;;;;;;;1.37;1.10;;;;;;;;;;5001190;28;20240;-86
2023/12/10 11:04:49;;;;;;;1.47;1.10;;;;;;;;;;4998045;28;20224;-85
2023/12/10 11:07:15;;;;;;;4.40;1.33;;;;;;;;;;4997410;28;20628;-82
2023/12/10 11:10:02;;;;;;;3.80;2.13;;;;;;;;;;4998893;28;20227;-78
2023/12/10 11:12:59;;;;;;;5.13;1.60;;;;;;;;;;4986538;28;20234;-78
2023/12/10 11:15:25;;;;;;;4.67;1.70;;;;;;;;;;4987733;28;20596;-78
2023/12/10 11:17:59;;;;;;;3.03;1.70;;;;;;;;;;5007302;28;20220;-80
2023/12/10 11:20:30;;;;;;;11.23;7.03;;;;;;;;;;5004146;28;20236;-77
2023/12/10 11:22:58;;;;;;;8.57;5.77;;;;;;;;;;5008189;28;20216;-78
2023/12/10 11:25:28;;;;;;;7.43;4.60;;;;;;;;;;4991289;28;20213;-77
2023/12/10 11:27:56;;;;;;;8.20;5.33;;;;;;;;;;5009150;28;20217;-77
2023/12/10 11:30:24;;;;;;;7.07;4.27;;;;;;;;;;4987772;28;20229;-78
2023/12/10 11:32:50;;;;;;;6.37;5.47;;;;;;;;;;4991628;28;20224;-77
2023/12/10 11:35:18;;;;;;;2.07;1.90;;;;;;;;;;4975287;28;20227;-78
2023/12/10 11:37:48;;;;;;;1.37;1.17;;;;;;;;;;4993583;28;20223;-77
2023/12/10 11:40:13;;;;;;;2.43;1.73;;;;;;;;;;5008065;28;20315;-78
2023/12/10 11:42:39;;;;;;;3.43;2.57;;;;;;;;;;5009788;28;20221;-78
2023/12/10 11:45:06;;;;;;;2.33;1.53;;;;;;;;;;4991763;28;20229;-78
2023/12/10 11:47:34;;;;;;;3.90;2.13;;;;;;;;;;4994063;28;20224;-78
2023/12/10 11:50:01;;;;;;;2.83;2.57;;;;;;;;;;4993087;28;20221;-77
2023/12/10 11:52:28;;;;;;;4.23;2.13;;;;;;;;;;4993453;28;20224;-77
2023/12/10 11:54:56;;;;;;;3.40;3.17;;;;;;;;;;4977031;28;20436;-78
2023/12/10 11:57:22;;;;;;;6.30;3.90;;;;;;;;;;4992351;28;20229;-77
2023/12/10 11:59:52;;;;;;;2.60;2.40;;;;;;;;;;4990957;28;20228;-77
2023/12/10 12:02:20;;;;;;;2.40;2.20;;;;;;;;;;4973065;28;20217;-77
2023/12/10 12:04:46;;;;;;;0.80;0.80;;;;;;;;;;4990702;28;20249;-77
2023/12/10 12:07:27;;;;;;;2.17;1.93;;;;;;;;;;5008295;28;20212;-76
2023/12/10 12:09:56;;;;;;;1.50;1.40;;;;;;;;;;4992270;28;20209;-75
2023/12/10 12:12:24;;;;;;;1.20;1.20;;;;;;;;;;4992568;28;20224;-77
2023/12/10 12:14:51;;;;;;;1.00;1.00;;;;;;;;;;5014328;28;20275;-78
2023/12/10 12:17:22;;;;;;;1.30;0.90;;;;;;;;;;4990034;28;20266;-78
2023/12/10 12:19:47;;;;;;;0.80;0.80;;;;;;;;;;5004042;28;20236;-77
2023/12/10 12:22:13;;;;;;;2.60;1.03;;;;;;;;;;5009663;28;20296;-81
2023/12/10 12:24:43;;;;;;;1.00;1.00;;;;;;;;;;4990453;28;20690;-77
2023/12/10 12:27:11;;;;;;;1.00;1.00;;;;;;;;;;4992293;28;20693;-77
2023/12/10 12:29:36;;;;;;;1.50;1.07;;;;;;;;;;4989395;28;21816;-77
2023/12/10 12:32:03;;;;;;;0.80;0.80;;;;;;;;;;4995015;28;20242;-78
2023/12/10 12:34:28;;;;;;;3.23;1.47;;;;;;;;;;4991101;28;20251;-79
2023/12/10 12:36:56;;;;;;;2.07;1.80;;;;;;;;;;5010625;28;20655;-79
2023/12/10 12:39:22;;;;;;;1.90;1.80;;;;;;;;;;4976738;28;20617;-78
2023/12/10 12:41:48;;;;;;;1.60;1.50;;;;;;;;;;4992723;28;20217;-79
2023/12/10 12:44:13;;;;;;;1.97;1.50;;;;;;;;;;5009535;28;20629;-78
2023/12/10 12:46:43;;;;;;;1.67;1.50;;;;;;;;;;4975874;28;20220;-77
2023/12/10 12:49:13;;;;;;;2.10;1.90;;;;;;;;;;4977841;28;20263;-78
2023/12/10 12:51:41;;;;;;;1.90;1.63;;;;;;;;;;4992017;28;20220;-78
2023/12/10 12:54:09;;;;;;;2.63;1.63;;;;;;;;;;4984467;28;20224;-79
2023/12/10 12:56:35;;;;;;;1.57;1.40;;;;;;;;;;5009264;28;20307;-79
2023/12/10 12:59:00;;;;;;;2.10;1.63;;;;;;;;;;5002782;28;20229;-78
2023/12/10 13:01:28;;;;;;;3.20;1.53;;;;;;;;;;4990171;28;20226;-77
2023/12/10 13:03:54;;;;;;;4.13;1.40;;;;;;;;;;4994530;28;20217;-79
2023/12/10 13:06:22;;;;;;;4.00;2.07;;;;;;;;;;4993378;28;20229;-78
2023/12/10 13:08:51;;;;;;;2.90;2.10;;;;;;;;;;4992058;28;20220;-78
2023/12/10 13:11:16;;;;;;;5.13;2.53;;;;;;;;;;5006580;28;20212;-77
2023/12/10 13:13:44;;;;;;;2.03;1.60;;;;;;;;;;4989325;28;20220;-78
2023/12/10 13:16:14;;;;;;;2.57;1.70;;;;;;;;;;5007819;28;20232;-78
2023/12/10 13:18:40;;;;;;;3.70;1.80;;;;;;;;;;4995863;28;20237;-79
2023/12/10 13:21:08;;;;;;;2.90;2.00;;;;;;;;;;5012833;28;20227;-79
2023/12/10 13:23:34;;;;;;;3.80;2.20;;;;;;;;;;5008728;28;20225;-78
2023/12/10 13:26:00;;;;;;;3.87;2.23;;;;;;;;;;5008377;28;20228;-78
2023/12/10 13:28:26;;;;;;;5.60;2.37;;;;;;;;;;4992382;28;20225;-79
2023/12/10 13:30:54;;;;;;;7.23;2.70;;;;;;;;;;5002581;28;20217;-78
2023/12/10 13:33:20;;;;;;;3.77;2.50;;;;;;;;;;5003033;28;20925;-78
2023/12/10 13:35:45;;;;;;;5.27;3.23;;;;;;;;;;5015678;28;21140;-77
2023/12/10 13:38:11;;;;;;;7.00;3.80;;;;;;;;;;4991822;28;20232;-78
2023/12/10 13:40:39;;;;;;;8.47;3.73;;;;;;;;;;5022933;28;20228;-78
2023/12/10 13:43:05;;;;;;;13.80;4.57;;;;;;;;;;5005860;28;20209;-80
2023/12/10 13:45:30;;;;;;;12.87;3.90;;;;;;;;;;5015208;28;20229;-80
2023/12/10 13:47:56;;;;;;;7.57;3.90;;;;;;;;;;5017252;28;20228;-78
2023/12/10 13:50:22;;;;;;;8.40;3.20;;;;;;;;;;5001306;28;20228;-80
2023/12/10 13:52:49;;;;;;;4.63;3.50;;;;;;;;;;4986267;28;20221;-79
2023/12/10 13:55:17;;;;;;;7.77;4.23;;;;;;;;;;5017732;28;20566;-79
2023/12/10 13:57:45;;;;;;;5.67;3.80;;;;;;;;;;4999940;28;20228;-78
2023/12/10 14:00:14;;;;;;;6.73;2.53;;;;;;;;;;5014071;28;20239;-79
2023/12/10 14:02:40;;;;;;;8.40;3.80;;;;;;;;;;4998804;28;20221;-76
2023/12/10 14:05:08;;;;;;;6.73;3.60;;;;;;;;;;5010097;28;20724;-79
2023/12/10 14:07:34;;;;;;;4.87;2.73;;;;;;;;;;4995276;28;20231;-76
2023/12/10 14:10:00;;;;;;;5.07;2.83;;;;;;;;;;5011346;28;20209;-78
2023/12/10 14:12:26;;;;;;;7.93;3.37;;;;;;;;;;4982284;28;20221;-77
2023/12/10 14:14:51;;;;;;;10.63;3.37;;;;;;;;;;4995539;28;20312;-78
2023/12/10 14:17:19;;;;;;;8.13;3.70;;;;;;;;;;5010077;28;20236;-76
2023/12/10 14:19:45;;;;;;;7.90;3.87;;;;;;;;;;4979521;28;20705;-76
2023/12/10 14:22:14;;;;;;;11.63;4.00;;;;;;;;;;5016206;28;20228;-77
2023/12/10 14:24:39;;;;;;;17.07;4.80;;;;;;;;;;4983770;28;20228;-76
2023/12/10 14:27:05;;;;;;;11.97;4.57;;;;;;;;;;4993894;28;20690;-78
2023/12/10 14:29:31;;;;;;;6.93;4.23;;;;;;;;;;5009121;28;20256;-77
2023/12/10 14:31:57;;;;;;;7.40;4.47;;;;;;;;;;4994204;28;20282;-77
2023/12/10 14:34:22;;;;;;;15.67;4.87;;;;;;;;;;5007921;28;22493;-77
2023/12/10 14:36:48;;;;;;;14.87;4.60;;;;;;;;;;5008792;28;20229;-77
2023/12/10 14:39:14;;;;;;;15.93;5.23;;;;;;;;;;5025746;28;20218;-77
2023/12/10 14:41:39;;;;;;;16.47;5.30;;;;;;;;;;4992734;28;20275;-78
2023/12/10 14:44:07;;;;;;;12.93;4.77;;;;;;;;;;4994372;28;20690;-78
2023/12/10 14:46:33;;;;;;;18.10;5.23;;;;;;;;;;4992371;28;20229;-77